• Join FlightAware (Why Join?)
  • Login
  • US Flag 
03:57AM EDT


 

Airport Tracker/Info


-or-


 

Live Flight TrackerFlight Track Log ✈ DAL695 ✈ 08-Jun-2013 ✈ KJFK - KMCO

Flight Track Log - Related Links

Times and Time Zones

All times are in EDT time to prevent confusion due to time zone crossing. See the DAL695 flight status page for this flight to view local times or setup timezone preferences in your user account.

Time Position Orientation Groundspeed Altitude Reporting Facility
EDT Latitude Longitude Course Direction KTS MPH feet Rate Location/Type
11:26AM 40.6000 -73.8000 146° Southeast 165 190 1,500  Level New York TRACON
11:28AM 40.3730 -73.5230 143° Southeast  Level FlightAware Approximate
11:28AM 40.5008 -73.6861 139° Southeast 247 284 6,300  Level New York Center
11:29AM 40.2929 -73.4465 159° South  Level FlightAware Approximate
11:29AM 40.4339 -73.6067 138° Southeast 283 326 9,600  Level New York Center
11:30AM 40.2099 -73.3625 146° Southeast  Level FlightAware Approximate
11:30AM 40.3750 -73.5444 141° Southeast 308 354 11,000  Level New York Center
11:31AM 40.1207 -73.2832 146° Southeast  Level FlightAware Approximate
11:31AM 40.2919 -73.4378 136° Southeast 359 413 12,700  Level New York Center
11:32AM 40.2275 -73.3372 130° Southeast 388 447 14,800 2,160 Climbing New York Center
11:33AM 40.1250 -73.2628 151° Southeast 382 440 17,100 2,340 Climbing New York Center
11:34AM 40.0328 -73.2894 192° South 335 386 19,600 1,620 Climbing New York Center
11:36AM 39.8781 -73.4692 222° Southwest 381 438 22,200 1,260 Climbing Washington Center
11:37AM 39.8006 -73.5633 223° Southwest 386 444 23,600 1,260 Climbing Washington Center
11:38AM 39.7186 -73.6572 221° Southwest 391 450 24,800 1,200 Climbing Washington Center
11:39AM 39.6389 -73.7511 222° Southwest 391 450 26,100 1,260 Climbing Washington Center
11:40AM 39.5569 -73.8500 223° Southwest 396 456 27,300 1,080 Climbing Washington Center
11:41AM 39.4731 -73.9461 222° Southwest 402 463 28,300 900 Climbing Washington Center
11:42AM 39.3908 -74.0422 222° Southwest 407 468 29,200 960 Climbing Washington Center
11:43AM 39.3044 -74.1353 220° Southwest 412 474 30,300 1,080 Climbing Washington Center
11:44AM 39.2181 -74.2281 220° Southwest 412 474 31,400 960 Climbing Washington Center
11:45AM 39.1358 -74.3178 220° Southwest 407 468 32,300 1,080 Climbing Washington Center
11:46AM 39.0450 -74.4022 216° Southwest 402 463 33,600 840 Climbing Washington Center
11:47AM 38.9622 -74.4758 215° Southwest 391 450 34,000 120 Climbing Washington Center
11:48AM 38.8733 -74.5572 215° Southwest 386 444 33,900 -60 Descending Washington Center
11:49AM 38.7864 -74.6356 215° Southwest 381 438 33,900  Level Washington Center
11:50AM 38.7036 -74.7111 215° Southwest 381 438 33,900  Level Washington Center
11:51AM 38.6144 -74.7892 214° Southwest 381 438 33,900  Level Washington Center
11:52AM 38.5294 -74.8672 216° Southwest 381 438 34,000  Climbing Washington Center
11:53AM 38.4444 -74.9450 216° Southwest 381 438 34,000  Level Washington Center
11:54AM 38.3572 -75.0197 214° Southwest 381 438 34,000  Level Washington Center
11:55AM 38.2742 -75.1025 218° Southwest 381 438 34,000  Level Washington Center
11:56AM 38.1869 -75.1797 215° Southwest 381 438 34,000 -60 Level Washington Center
11:57AM 38.1017 -75.2567 215° Southwest 381 438 33,900  Descending Washington Center
11:58AM 38.0164 -75.3308 214° Southwest 381 438 34,000  Climbing Washington Center
11:59AM 37.9289 -75.4047 214° Southwest 381 438 34,000  Level Washington Center
12:00PM 37.8436 -75.4814 215° Southwest 381 438 34,000 -60 Level Washington Center
12:01PM 37.7561 -75.5550 214° Southwest 381 438 33,900 -60 Descending Washington Center
12:02PM 37.6706 -75.6311 215° Southwest 381 438 33,900  Level Washington Center
12:03PM 37.5828 -75.7097 215° Southwest 381 438 34,000  Climbing Washington Center
12:04PM 37.4931 -75.7856 214° Southwest 381 438 34,000 -60 Level Washington Center
12:05PM 37.4075 -75.8611 215° Southwest 381 438 33,900 -60 Descending Washington Center
12:06PM 37.3072 -75.9444 213° Southwest 381 438 33,900  Level Washington Center
12:07PM 37.2192 -76.0222 215° Southwest 381 438 34,000  Climbing Washington Center
12:08PM 37.1333 -76.0972 215° Southwest 381 438 34,000  Level Washington Center
12:09PM 37.0392 -76.1669 211° Southwest 381 438 34,000  Level Washington Center
12:10PM 36.9492 -76.2417 214° Southwest 391 450 34,000  Level Washington Center
12:11PM 36.8611 -76.3189 215° Southwest 396 456 34,000  Level Washington Center
12:12PM 36.7708 -76.3931 213° Southwest 396 456 34,000  Level Washington Center
12:13PM 36.6828 -76.4750 217° Southwest 396 456 34,000 -60 Level Washington Center
12:14PM 36.5944 -76.5492 214° Southwest 396 456 33,900 -60 Descending Washington Center
12:15PM 36.5042 -76.6231 213° Southwest 396 456 33,900  Level Washington Center
12:16PM 36.4158 -76.6992 215° Southwest 396 456 34,000  Climbing Washington Center
12:17PM 36.3256 -76.7728 213° Southwest 396 456 34,000  Level Washington Center
12:18PM 36.2372 -76.8461 214° Southwest 396 456 34,000  Level Washington Center
12:19PM 36.1444 -76.9219 213° Southwest 396 456 34,000  Level Washington Center
12:20PM 36.0561 -76.9975 215° Southwest 396 456 34,000 -60 Level Washington Center
12:21PM 35.9653 -77.0703 213° Southwest 396 456 33,900  Descending Washington Center
12:22PM 35.8853 -77.1381 214° Southwest 396 456 34,000  Climbing Washington Center
12:23PM 35.7925 -77.2156 214° Southwest 391 450 34,000  Level Washington Center
12:24PM 35.7017 -77.2906 214° Southwest 397 457 34,000  Level Washington Center
12:25PM 35.6089 -77.3650 213° Southwest 402 463 34,000  Level Washington Center
12:26PM 35.5158 -77.4422 214° Southwest 402 463 34,000  Level Washington Center
12:27PM 35.4250 -77.5139 213° Southwest 402 463 34,000  Level Washington Center
12:28PM 35.3339 -77.5958 216° Southwest 402 463 34,000  Level Washington Center
12:29PM 35.2489 -77.6828 220° Southwest 402 463 34,000  Level Washington Center
12:30PM 35.1661 -77.7719 221° Southwest 402 463 34,000  Level Washington Center
12:31PM 35.0831 -77.8536 219° Southwest 402 463 34,000  Level Washington Center
12:32PM 34.9958 -77.9450 221° Southwest 409 471 34,000  Level Washington Center
12:35PM 34.7325 -78.2217 221° Southwest 408 470 34,000 -60 Level Jacksonville Center
12:36PM 34.6439 -78.3100 219° Southwest 411 473 33,900  Descending Jacksonville Center
12:37PM 34.5594 -78.3975 220° Southwest 411 473 34,000  Climbing Jacksonville Center
12:38PM 34.4750 -78.4850 221° Southwest 417 480 33,900 -60 Descending Jacksonville Center
12:39PM 34.3864 -78.5750 220° Southwest 417 480 33,900  Level Jacksonville Center
12:40PM 34.2975 -78.6600 218° Southwest 417 480 34,000  Climbing Jacksonville Center
12:41PM 34.2128 -78.7469 220° Southwest 417 480 34,000  Level Jacksonville Center
12:42PM 34.1297 -78.8286 219° Southwest 417 480 34,000 -60 Level Jacksonville Center
12:43PM 34.0408 -78.9131 218° Southwest 417 480 33,900 -60 Descending Jacksonville Center
12:44PM 33.9539 -79.0019 220° Southwest 417 480 33,900  Level Jacksonville Center
12:45PM 33.8644 -79.0861 218° Southwest 417 480 34,000  Climbing Jacksonville Center
12:46PM 33.7756 -79.1772 220° Southwest 417 480 34,000 -60 Level Jacksonville Center
12:47PM 33.6922 -79.2581 219° Southwest 411 473 33,900 -60 Descending Jacksonville Center
12:48PM 33.6050 -79.3467 220° Southwest 411 473 33,900  Level Jacksonville Center
12:49PM 33.5136 -79.4325 218° Southwest 411 473 34,000  Climbing Jacksonville Center
12:50PM 33.4261 -79.5206 220° Southwest 416 479 34,000 -60 Level Jacksonville Center
12:51PM 33.3386 -79.6058 219° Southwest 416 479 33,900 -60 Descending Jacksonville Center
12:52PM 33.2531 -79.6883 219° Southwest 416 479 33,900  Level Jacksonville Center
12:53PM 33.1656 -79.7733 219° Southwest 416 479 33,900  Level Jacksonville Center
12:54PM 33.0697 -79.8661 219° Southwest 416 479 33,900  Level Jacksonville Center
12:55PM 32.9800 -79.9508 218° Southwest 416 479 34,000  Climbing Jacksonville Center
12:56PM 32.8900 -80.0353 218° Southwest 416 479 34,000  Level Jacksonville Center
12:57PM 32.7956 -80.1100 214° Southwest 416 479 34,000 -60 Level Jacksonville Center
12:58PM 32.7011 -80.1794 212° Southwest 411 473 33,900 -60 Descending Jacksonville Center
12:59PM 32.6067 -80.2489 212° Southwest 406 467 33,900  Level Jacksonville Center
01:00PM 32.5100 -80.3208 212° Southwest 411 473 33,900  Level Jacksonville Center
01:01PM 32.4133 -80.3925 212° Southwest 411 473 33,900  Level Jacksonville Center
01:02PM 32.3186 -80.4614 212° Southwest 403 464 34,000  Climbing Jacksonville Center
01:03PM 32.2197 -80.5353 212° Southwest 414 476 34,000  Level Jacksonville Center
01:04PM 32.1292 -80.6014 212° Southwest 411 473 34,000  Level Jacksonville Center
01:05PM 32.0406 -80.6647 211° Southwest 406 467 34,000  Level Jacksonville Center
01:06PM 31.9353 -80.7408 212° Southwest 418 481 34,000  Level Jacksonville Center
01:07PM 31.8383 -80.8089 211° Southwest 424 488 34,000  Level Jacksonville Center
01:08PM 31.7475 -80.8722 211° Southwest 429 494 34,000  Level Jacksonville Center
01:09PM 31.6422 -80.9475 211° Southwest 422 486 34,000  Level Jacksonville Center
01:10PM 31.5450 -81.0181 212° Southwest 422 486 34,000  Level Jacksonville Center
01:11PM 31.4561 -81.0806 211° Southwest 422 486 34,000 -60 Level Jacksonville Center
01:12PM 31.3444 -81.1533 209° Southwest 422 486 33,900 -60 Descending Jacksonville Center
01:13PM 31.2278 -81.1675 186° South 417 480 33,900  Level Jacksonville Center
01:14PM 31.1067 -81.1625 178° South 427 491 33,900  Level Jacksonville Center
01:15PM 30.9875 -81.1600 179° South 427 491 33,900  Level Jacksonville Center
01:16PM 30.8706 -81.1572 179° South 427 491 33,900  Level Jacksonville Center
01:17PM 30.7472 -81.1497 177° South 432 497 34,000  Climbing Jacksonville Center
01:18PM 30.6261 -81.1497 180° South 432 497 34,000  Level Jacksonville Center
01:19PM 30.5050 -81.1469 179° South 437 503 34,000 -60 Level Jacksonville Center
01:20PM 30.3819 -81.1419 178° South 437 503 33,900 -300 Descending Jacksonville Center
01:21PM 30.2586 -81.1394 179° South 437 503 33,400 -660 Descending Jacksonville Center
01:22PM 30.1500 -81.1367 179° South 437 503 32,600 -900 Descending Jacksonville Center
01:23PM 30.0247 -81.1342 179° South 437 503 31,700 -1,200 Descending Jacksonville Center
01:24PM 29.9014 -81.1292 178° South 442 509 30,300 -2,040 Descending Jacksonville Center
01:25PM 29.7783 -81.1267 179° South 442 509 27,700 -2,580 Descending Jacksonville Center
01:26PM 29.6633 -81.1264 180° South 429 494 25,200 -2,520 Descending Jacksonville Center
01:27PM 29.5506 -81.1211 178° South 418 481 22,700 -2,700 Descending Jacksonville Center
01:28PM 29.4317 -81.1208 180° South 399 459 19,900 -2,640 Descending Jacksonville Center
01:29PM 29.3294 -81.1156 177° South 382 440 17,500 -2,400 Descending Jacksonville Center
01:30PM 29.2247 -81.1081 176° South 377 434 15,200 -2,280 Descending Jacksonville Center
01:31PM 29.1267 -81.1003 176° South 367 422 13,000 -1,560 Descending Jacksonville Center
01:32PM 29.0325 -81.0925 176° South 342 394 12,100 -900 Descending Jacksonville Center
01:33PM 28.9511 -81.0797 172° South 302 348 11,200 -1,500 Descending Jacksonville Center
01:34PM 28.8778 -81.0692 173° South 282 325 9,100 -2,040 Descending Jacksonville Center
01:35PM 28.8167 -81.0667 178° South 261 300 7,200 -1,620 Descending Orlando TRACON
01:36PM 28.7667 -81.1167 221° Southwest 243 280 6,000 -840 Descending Orlando TRACON
01:37PM 28.7061 -81.1717 219° Southwest 240 276 5,600 -1,260 Descending Jacksonville Center
01:38PM 28.6608 -81.2244 226° Southwest 245 282 3,500 -2,100 Descending Jacksonville Center